createdAt,value
2023-01-20T00:00:18.197Z,27.27
2023-01-20T00:03:06.941Z,27.60
2023-01-20T00:05:59.193Z,28.27
2023-01-20T00:08:47.984Z,26.88
2023-01-20T00:11:30.181Z,25.20
2023-01-20T00:14:18.982Z,23.50
2023-01-20T00:17:07.927Z,24.17
2023-01-20T00:19:50.042Z,26.02
2023-01-20T00:22:38.874Z,25.20
2023-01-20T00:25:22.587Z,26.02
2023-01-20T00:28:11.972Z,25.50
2023-01-20T00:31:00.278Z,24.98
2023-01-20T00:33:41.938Z,23.33
2023-01-20T00:36:41.927Z,23.25
2023-01-20T00:39:24.167Z,21.88
2023-01-20T00:42:12.936Z,23.42
2023-01-20T00:45:02.215Z,19.00
2023-01-20T00:47:44.236Z,19.27
2023-01-20T00:50:33.343Z,20.65
2023-01-20T00:53:15.924Z,19.15
2023-01-20T00:56:04.952Z,19.60
2023-01-20T00:58:50.229Z,18.77
2023-01-20T01:01:38.993Z,20.10
2023-01-20T01:04:21.170Z,18.30
2023-01-20T01:07:09.924Z,18.40
2023-01-20T01:09:52.763Z,17.85
2023-01-20T01:12:41.933Z,19.83
2023-01-20T01:15:24.199Z,17.35
2023-01-20T01:18:12.939Z,18.02
2023-01-20T01:20:55.256Z,17.65
2023-01-20T01:23:43.941Z,17.27
2023-01-20T01:26:26.199Z,18.27
2023-01-20T01:29:14.975Z,18.08
2023-01-20T01:31:57.230Z,18.75
2023-01-20T01:34:45.855Z,20.23
2023-01-20T01:37:28.194Z,20.13
2023-01-20T01:40:17.859Z,20.10
2023-01-20T01:43:00.306Z,20.90
2023-01-20T01:45:49.012Z,22.33
2023-01-20T01:48:53.893Z,24.20
2023-01-20T01:51:42.608Z,23.15
2023-01-20T01:54:42.303Z,24.20
2023-01-20T01:57:37.809Z,23.88
2023-01-20T02:00:26.861Z,23.05
2023-01-20T02:03:16.002Z,24.02
2023-01-20T02:06:05.129Z,25.98
2023-01-20T02:08:47.777Z,25.27
2023-01-20T02:11:39.191Z,25.02
2023-01-20T02:14:20.952Z,27.17
2023-01-20T02:17:23.425Z,25.15
2023-01-20T02:20:17.013Z,27.35
2023-01-20T02:23:17.250Z,28.13
2023-01-20T02:26:25.002Z,28.13
2023-01-20T02:29:41.224Z,28.45
2023-01-20T02:32:27.812Z,30.73
2023-01-20T02:35:28.911Z,33.53
2023-01-20T02:38:25.945Z,34.75
2023-01-20T02:41:24.885Z,32.60
2023-01-20T02:44:32.829Z,35.40
2023-01-20T02:47:33.046Z,34.20
2023-01-20T02:50:49.046Z,34.33
2023-01-20T02:53:56.194Z,36.08
2023-01-20T02:56:39.818Z,36.40
2023-01-20T02:59:34.230Z,36.20
2023-01-20T03:02:27.819Z,35.60
2023-01-20T03:05:16.698Z,36.90
2023-01-20T03:08:08.754Z,37.97
2023-01-20T03:10:54.415Z,37.47
2023-01-20T03:14:23.913Z,38.42
2023-01-20T03:17:12.854Z,39.65
2023-01-20T03:19:55.168Z,39.25
2023-01-20T03:22:43.804Z,39.25
2023-01-20T03:25:28.150Z,37.50
2023-01-20T03:28:16.781Z,39.15
2023-01-20T03:31:01.266Z,38.00
2023-01-20T03:33:50.867Z,38.30
2023-01-20T03:36:42.918Z,37.55
2023-01-20T03:39:39.871Z,39.75
2023-01-20T03:42:39.230Z,39.05
2023-01-20T03:45:53.877Z,40.38
2023-01-20T03:49:04.889Z,40.78
2023-01-20T03:52:09.178Z,42.10
2023-01-20T03:55:05.940Z,43.58
2023-01-20T03:58:07.315Z,44.20
2023-01-20T04:00:53.917Z,44.40
2023-01-20T04:03:48.166Z,46.17
2023-01-20T04:06:33.870Z,45.78
2023-01-20T04:09:32.355Z,44.92
2023-01-20T04:12:14.803Z,43.58
2023-01-20T04:15:03.755Z,44.00
2023-01-20T04:17:53.872Z,45.83
2023-01-20T04:20:36.028Z,46.13
2023-01-20T04:23:40.461Z,49.45
2023-01-20T04:26:24.915Z,47.72
2023-01-20T04:29:15.784Z,50.35
2023-01-20T04:32:08.865Z,48.78
2023-01-20T04:34:57.890Z,49.03
2023-01-20T04:37:40.054Z,47.55
2023-01-20T04:40:28.868Z,47.90
2023-01-20T04:43:19.520Z,45.47
2023-01-20T04:46:03.058Z,46.03
2023-01-20T04:48:53.220Z,46.90
2023-01-20T04:51:35.883Z,43.35
2023-01-20T04:54:24.787Z,45.23
2023-01-20T04:57:07.335Z,42.95
2023-01-20T04:59:55.736Z,45.28
2023-01-20T05:02:38.256Z,43.97
2023-01-20T05:05:27.241Z,43.83
2023-01-20T05:08:09.438Z,44.40
2023-01-20T05:10:57.927Z,43.53
2023-01-20T05:13:40.355Z,43.10
2023-01-20T05:16:32.852Z,42.28
2023-01-20T05:19:15.139Z,46.33
2023-01-20T05:22:03.869Z,43.63
2023-01-20T05:24:46.331Z,45.65
2023-01-20T05:27:34.809Z,45.83
2023-01-20T05:30:18.183Z,48.63
2023-01-20T05:33:06.819Z,51.92
2023-01-20T05:35:49.345Z,51.20
2023-01-20T05:38:37.913Z,52.35
2023-01-20T05:41:21.120Z,54.40
2023-01-20T05:44:09.933Z,54.63
2023-01-20T05:46:52.225Z,57.17
2023-01-20T05:49:40.878Z,57.30
2023-01-20T05:52:23.309Z,59.88
2023-01-20T05:55:12.997Z,60.72
2023-01-20T05:58:07.749Z,60.47
2023-01-20T06:00:56.799Z,58.20
2023-01-20T06:03:39.144Z,56.97
2023-01-20T06:06:27.767Z,57.55
2023-01-20T06:09:12.031Z,55.28
2023-01-20T06:12:00.868Z,56.72
2023-01-20T06:14:43.188Z,54.08
2023-01-20T06:17:31.955Z,50.60
2023-01-20T06:20:14.201Z,48.85
2023-01-20T06:23:03.996Z,49.22
2023-01-20T06:25:46.137Z,45.50
2023-01-20T06:28:34.842Z,41.53
2023-01-20T06:31:20.440Z,39.85
2023-01-20T06:34:09.913Z,37.38
2023-01-20T06:36:52.162Z,36.20
2023-01-20T06:39:40.861Z,32.92
2023-01-20T06:42:23.433Z,32.05
2023-01-20T06:45:11.863Z,30.40
2023-01-20T06:47:58.125Z,31.42
2023-01-20T06:50:46.819Z,32.80
2023-01-20T06:53:29.127Z,35.72
2023-01-20T06:56:19.896Z,36.83
2023-01-20T06:59:15.159Z,35.72
2023-01-20T07:01:58.217Z,35.60
2023-01-20T07:04:46.892Z,37.50
2023-01-20T07:07:35.864Z,35.13
2023-01-20T07:10:25.922Z,33.92
2023-01-20T07:13:14.883Z,27.80
2023-01-20T07:16:35.002Z,27.95
2023-01-20T07:19:30.845Z,30.65
2023-01-20T07:22:19.227Z,28.60
2023-01-20T07:25:00.889Z,31.52
2023-01-20T07:27:49.865Z,31.20
2023-01-20T07:30:33.417Z,29.63
2023-01-20T07:33:21.849Z,31.95
2023-01-20T07:36:04.180Z,29.92
2023-01-20T07:38:56.905Z,30.85
2023-01-20T07:41:39.160Z,29.27
2023-01-20T07:44:30.982Z,28.35
2023-01-20T07:47:13.144Z,29.58
2023-01-20T07:50:58.829Z,29.38
2023-01-20T07:53:48.178Z,31.08
2023-01-20T07:56:43.960Z,32.08
2023-01-20T07:59:33.067Z,32.45
2023-01-20T08:02:17.978Z,35.42
2023-01-20T08:05:00.179Z,33.88
2023-01-20T08:07:48.835Z,34.83
2023-01-20T08:10:38.345Z,35.33
2023-01-20T08:13:19.952Z,35.33
2023-01-20T08:16:07.000Z,35.38
2023-01-20T08:18:56.899Z,34.95
2023-01-20T08:21:39.555Z,33.55
2023-01-20T08:24:28.789Z,29.15
2023-01-20T08:27:17.142Z,26.52
2023-01-20T08:30:01.844Z,28.38
2023-01-20T08:32:50.204Z,25.80
2023-01-20T08:35:32.883Z,24.08
2023-01-20T08:38:21.133Z,22.63
2023-01-20T08:41:03.865Z,20.90
2023-01-20T08:43:52.143Z,22.45
2023-01-20T08:46:34.902Z,21.27
2023-01-20T08:49:18.626Z,19.27
2023-01-20T08:52:07.842Z,20.45
2023-01-20T08:54:54.558Z,22.13
2023-01-20T08:57:43.918Z,24.80
2023-01-20T09:00:33.075Z,24.48
2023-01-20T09:03:14.682Z,23.80
2023-01-20T09:05:57.323Z,23.15
2023-01-20T09:08:45.841Z,23.38
2023-01-20T09:11:34.942Z,20.10
2023-01-20T09:14:17.127Z,14.90
2023-01-20T09:17:05.815Z,15.07
2023-01-20T09:19:48.255Z,14.73
2023-01-20T09:22:36.761Z,16.30
2023-01-20T09:25:19.532Z,16.55
2023-01-20T09:28:09.835Z,16.27
2023-01-20T09:30:52.263Z,20.25
2023-01-20T09:33:43.727Z,20.15
2023-01-20T09:36:28.643Z,20.45
2023-01-20T09:39:36.976Z,22.77
2023-01-20T09:42:46.520Z,23.42
2023-01-20T09:45:45.889Z,19.17
2023-01-20T09:49:11.443Z,17.45
2023-01-20T09:52:41.843Z,15.25
2023-01-20T09:55:28.074Z,13.50
2023-01-20T09:58:22.931Z,12.70
2023-01-20T10:01:36.600Z,11.55
2023-01-20T10:04:38.890Z,12.02
2023-01-20T10:07:29.492Z,12.18
2023-01-20T10:10:35.001Z,10.80
2023-01-20T10:13:41.842Z,10.80
2023-01-20T10:16:41.828Z,11.68
2023-01-20T10:19:55.933Z,13.35
2023-01-20T10:25:41.879Z,14.95
2023-01-20T10:28:40.896Z,13.93
2023-01-20T10:31:36.201Z,14.45
2023-01-20T10:34:24.862Z,15.70
2023-01-20T10:37:18.855Z,14.63
2023-01-20T10:40:27.225Z,15.55
2023-01-20T10:43:23.840Z,16.77
2023-01-20T10:46:23.169Z,16.92
2023-01-20T10:49:47.918Z,18.50
2023-01-20T10:52:49.344Z,18.15
2023-01-20T10:56:07.150Z,17.95
2023-01-20T10:59:04.766Z,18.60
2023-01-20T11:01:59.386Z,20.48
2023-01-20T11:04:55.815Z,19.42
2023-01-20T11:07:45.180Z,19.15
2023-01-20T11:10:35.870Z,19.52
2023-01-20T11:13:18.789Z,19.23
2023-01-20T11:16:25.891Z,19.77
2023-01-20T11:19:08.789Z,20.10
2023-01-20T11:21:57.795Z,22.27
2023-01-20T11:24:47.016Z,24.25
2023-01-20T11:27:38.768Z,26.83
2023-01-20T11:30:43.831Z,31.50
2023-01-20T11:33:36.142Z,33.13
2023-01-20T11:36:31.729Z,34.72
2023-01-20T11:39:38.817Z,36.08
2023-01-20T11:42:36.723Z,34.95
2023-01-20T11:45:39.897Z,34.90
2023-01-20T11:48:22.675Z,35.05
2023-01-20T11:51:16.805Z,32.80
2023-01-20T11:54:20.180Z,34.03
2023-01-20T11:57:18.896Z,32.83
2023-01-20T12:00:07.026Z,33.42
2023-01-20T12:02:49.781Z,34.20
2023-01-20T12:05:56.581Z,35.97
2023-01-20T12:09:25.877Z,33.97
2023-01-20T12:12:35.852Z,34.38
2023-01-20T12:15:26.320Z,34.40
2023-01-20T12:18:53.348Z,35.58
2023-01-20T12:21:55.829Z,36.22
2023-01-20T12:25:16.846Z,37.33
2023-01-20T12:28:07.225Z,36.92
2023-01-20T12:31:07.120Z,36.78
2023-01-20T12:33:53.282Z,37.83
2023-01-20T12:37:17.750Z,39.80
2023-01-20T12:40:06.068Z,39.67
2023-01-20T12:43:21.807Z,41.55
2023-01-20T12:46:22.231Z,42.63
2023-01-20T12:49:16.809Z,43.63
2023-01-20T12:51:59.284Z,41.67
2023-01-20T12:54:50.790Z,42.90
2023-01-20T12:57:51.973Z,41.85
2023-01-20T13:01:17.097Z,48.20
2023-01-20T13:04:19.748Z,41.70
2023-01-20T13:07:20.830Z,41.53
2023-01-20T13:10:55.797Z,42.67
2023-01-20T13:13:59.290Z,41.55
2023-01-20T13:17:23.827Z,41.83
2023-01-20T13:20:17.146Z,38.42
2023-01-20T13:23:11.845Z,39.58
2023-01-20T13:25:55.253Z,38.33
2023-01-20T13:28:43.845Z,39.65
2023-01-20T13:31:47.871Z,39.60
2023-01-20T13:34:38.684Z,38.53
2023-01-20T13:37:51.859Z,37.58
2023-01-20T13:40:40.112Z,36.13
2023-01-20T13:43:36.837Z,37.30
2023-01-20T13:46:19.368Z,36.42
2023-01-20T13:49:36.141Z,36.50
2023-01-20T13:52:44.487Z,34.00
2023-01-20T13:56:05.854Z,34.78
2023-01-20T13:59:01.793Z,33.83
2023-01-20T14:01:50.798Z,35.20
2023-01-20T14:04:40.831Z,33.90
2023-01-20T14:07:25.767Z,33.25
2023-01-20T14:10:15.969Z,34.87
2023-01-20T14:12:58.367Z,32.58
2023-01-20T14:15:50.926Z,32.83
2023-01-20T14:18:39.867Z,33.85
2023-01-20T14:21:35.111Z,31.75
2023-01-20T14:24:35.814Z,33.40
2023-01-20T14:27:35.794Z,33.05
2023-01-20T14:30:28.804Z,34.00
2023-01-20T14:33:22.779Z,33.50
2023-01-20T14:36:08.903Z,34.33
2023-01-20T14:39:04.812Z,34.83
2023-01-20T14:41:52.967Z,33.53
2023-01-20T14:44:46.027Z,32.92
2023-01-20T14:47:28.886Z,32.53
2023-01-20T14:50:18.179Z,33.88
2023-01-20T14:53:06.834Z,33.05
2023-01-20T14:55:59.783Z,33.72
2023-01-20T14:59:02.640Z,33.75
2023-01-20T15:01:51.807Z,35.35
2023-01-20T15:04:34.118Z,34.28
2023-01-20T15:07:29.848Z,36.85
2023-01-20T15:10:21.754Z,36.13
2023-01-20T15:13:10.826Z,35.25
2023-01-20T15:15:53.233Z,36.75
2023-01-20T15:18:44.811Z,37.90
2023-01-20T15:21:42.787Z,38.72
2023-01-20T15:24:40.939Z,37.78
2023-01-20T15:27:36.774Z,39.38
2023-01-20T15:30:35.828Z,39.63
2023-01-20T15:33:18.321Z,39.58
2023-01-20T15:36:08.835Z,41.35
2023-01-20T15:38:58.698Z,39.65
2023-01-20T15:41:40.941Z,41.72
2023-01-20T15:44:31.849Z,42.50
2023-01-20T15:47:36.727Z,44.08
2023-01-20T15:50:32.591Z,41.92
2023-01-20T15:53:21.729Z,43.80
2023-01-20T15:56:04.120Z,44.15
2023-01-20T15:58:52.784Z,47.92
2023-01-20T16:01:36.022Z,45.33
2023-01-20T16:04:26.781Z,44.65
2023-01-20T16:07:08.968Z,44.50
2023-01-20T16:09:57.743Z,43.75
2023-01-20T16:12:40.231Z,45.55
2023-01-20T16:15:28.843Z,43.70
2023-01-20T16:18:12.093Z,45.03
2023-01-20T16:21:00.801Z,44.20
2023-01-20T16:23:43.059Z,43.08
2023-01-20T16:26:36.807Z,43.15
2023-01-20T16:29:19.036Z,44.92
2023-01-20T16:32:07.820Z,44.30
2023-01-20T16:34:50.553Z,42.53
2023-01-20T16:37:39.768Z,43.75
2023-01-20T16:40:32.736Z,40.90
2023-01-20T16:43:15.136Z,41.95
2023-01-20T16:46:06.811Z,43.67
2023-01-20T16:48:49.758Z,42.17
2023-01-20T16:51:38.807Z,43.13
2023-01-20T16:54:22.103Z,43.13
2023-01-20T16:57:10.725Z,43.55
2023-01-20T17:00:05.679Z,43.97
2023-01-20T17:03:00.792Z,44.10
2023-01-20T17:05:43.152Z,41.78
2023-01-20T17:08:31.799Z,45.03
2023-01-20T17:11:13.974Z,43.83
2023-01-20T17:14:03.759Z,44.23
2023-01-20T17:16:47.169Z,45.38
2023-01-20T17:19:35.891Z,46.88
2023-01-20T17:22:18.604Z,46.17
2023-01-20T17:25:07.813Z,47.93
2023-01-20T17:27:50.107Z,47.97
2023-01-20T17:30:38.799Z,47.72
2023-01-20T17:33:27.892Z,48.25
2023-01-20T17:36:18.109Z,45.63
2023-01-20T17:38:59.781Z,47.25
2023-01-20T17:41:48.092Z,47.15
2023-01-20T17:44:30.607Z,49.40
2023-01-20T17:47:20.635Z,50.47
2023-01-20T17:50:03.127Z,48.78
2023-01-20T17:52:51.717Z,50.75
2023-01-20T17:55:34.092Z,49.85
2023-01-20T17:58:28.711Z,51.63
2023-01-20T18:01:16.742Z,50.88
2023-01-20T18:04:08.725Z,54.63
2023-01-20T18:06:58.015Z,54.63
2023-01-20T18:09:42.933Z,61.13
2023-01-20T18:12:31.110Z,65.60
2023-01-20T18:15:13.699Z,66.68
2023-01-20T18:18:02.757Z,66.03
2023-01-20T18:20:45.652Z,65.47
2023-01-20T18:23:34.813Z,65.90
2023-01-20T18:26:19.446Z,65.95
2023-01-20T18:29:12.870Z,64.88
2023-01-20T18:31:55.595Z,64.72
2023-01-20T18:34:44.805Z,66.10
2023-01-20T18:37:33.906Z,68.85
2023-01-20T18:40:23.026Z,65.60
2023-01-20T18:43:05.680Z,67.60
2023-01-20T18:45:48.348Z,69.03
2023-01-20T18:48:36.783Z,73.95
2023-01-20T18:51:28.187Z,76.30
2023-01-20T18:54:13.814Z,75.47
2023-01-20T18:56:56.817Z,76.50
2023-01-20T18:59:49.963Z,77.25
2023-01-20T19:02:32.189Z,77.40
2023-01-20T19:05:21.701Z,74.47
2023-01-20T19:08:10.883Z,71.95
2023-01-20T19:10:53.278Z,70.78
2023-01-20T19:13:41.842Z,62.47
2023-01-20T19:16:26.624Z,55.78
2023-01-20T19:19:15.707Z,51.65
2023-01-20T19:21:59.176Z,50.38
2023-01-20T19:24:47.861Z,45.95
2023-01-20T19:27:30.247Z,43.38
2023-01-20T19:30:19.705Z,44.83
2023-01-20T19:33:02.165Z,44.72
2023-01-20T19:35:50.720Z,43.63
2023-01-20T19:38:34.021Z,45.38
2023-01-20T19:41:25.776Z,44.22
2023-01-20T19:44:10.073Z,44.78
2023-01-20T19:46:58.832Z,44.22
2023-01-20T19:49:41.376Z,43.30
2023-01-20T19:52:30.687Z,42.72
2023-01-20T19:55:13.614Z,43.63
2023-01-20T19:58:02.786Z,42.60
2023-01-20T20:00:57.638Z,41.25
2023-01-20T20:03:46.680Z,42.03
2023-01-20T20:06:40.260Z,41.55
2023-01-20T20:09:30.782Z,42.97
2023-01-20T20:12:13.243Z,42.72
2023-01-20T20:15:02.753Z,42.03
2023-01-20T20:17:45.261Z,41.85
2023-01-20T20:20:33.739Z,42.85
2023-01-20T20:23:16.092Z,42.17
2023-01-20T20:26:04.715Z,42.25
2023-01-20T20:28:47.027Z,43.42
2023-01-20T20:31:38.808Z,43.78
2023-01-20T20:34:23.986Z,41.17
2023-01-20T20:37:12.701Z,40.47
2023-01-20T20:39:55.017Z,39.65
2023-01-20T20:42:43.780Z,38.20
2023-01-20T20:45:26.839Z,36.47
2023-01-20T20:48:17.664Z,37.92
2023-01-20T20:51:00.241Z,39.47
2023-01-20T20:53:49.749Z,37.10
2023-01-20T20:56:33.034Z,36.72
2023-01-20T20:59:21.705Z,38.65
2023-01-20T21:02:04.168Z,38.65
2023-01-20T21:04:53.656Z,38.03
2023-01-20T21:07:35.958Z,37.92
2023-01-20T21:10:24.722Z,35.58
2023-01-20T21:13:15.755Z,36.88
2023-01-20T21:16:14.862Z,35.65
2023-01-20T21:18:58.701Z,37.67
2023-01-20T21:21:47.737Z,39.00
2023-01-20T21:24:31.036Z,41.72
2023-01-20T21:27:19.694Z,45.20
2023-01-20T21:30:08.714Z,50.53
2023-01-20T21:32:57.022Z,51.85
2023-01-20T21:35:40.119Z,54.50
2023-01-20T21:38:24.648Z,61.90
2023-01-20T21:41:21.774Z,69.38
2023-01-20T21:44:28.146Z,70.65
2023-01-20T21:47:18.661Z,69.82
2023-01-20T21:50:19.153Z,74.72
2023-01-20T21:53:07.695Z,74.00
2023-01-20T21:55:50.045Z,70.00
2023-01-20T21:58:38.728Z,69.47
2023-01-20T22:01:20.885Z,67.57
2023-01-20T22:04:09.691Z,67.05
2023-01-20T22:06:58.059Z,65.18
2023-01-20T22:09:39.832Z,65.53
2023-01-20T22:12:21.830Z,68.50
2023-01-20T22:15:12.643Z,65.78
2023-01-20T22:18:01.712Z,68.53
2023-01-20T22:20:44.076Z,70.60
2023-01-20T22:23:32.672Z,65.82
2023-01-20T22:26:15.022Z,65.47
2023-01-20T22:29:03.671Z,66.55
2023-01-20T22:31:46.042Z,64.53
2023-01-20T22:34:34.733Z,62.97
2023-01-20T22:37:16.969Z,64.28
2023-01-20T22:40:05.699Z,63.80
2023-01-20T22:42:47.943Z,64.32
2023-01-20T22:45:36.786Z,63.78
2023-01-20T22:48:19.037Z,64.90
2023-01-20T22:51:19.775Z,64.25
2023-01-20T22:54:10.819Z,64.13
2023-01-20T22:56:59.672Z,68.22
2023-01-20T22:59:54.555Z,67.40
2023-01-20T23:02:46.666Z,65.72
2023-01-20T23:05:28.983Z,69.00
2023-01-20T23:08:17.720Z,66.70
2023-01-20T23:11:07.927Z,67.85
2023-01-20T23:13:56.715Z,65.47
2023-01-20T23:16:39.018Z,70.03
2023-01-20T23:19:27.733Z,73.78
2023-01-20T23:22:09.967Z,72.20
2023-01-20T23:24:58.652Z,70.68
2023-01-20T23:27:40.943Z,70.45
2023-01-20T23:30:29.639Z,69.32
2023-01-20T23:33:19.682Z,72.13
2023-01-20T23:36:25.784Z,65.20
2023-01-20T23:39:14.685Z,63.75
2023-01-20T23:42:04.723Z,56.55
2023-01-20T23:44:47.030Z,61.80
2023-01-20T23:47:35.727Z,62.50
2023-01-20T23:50:25.628Z,57.75
2023-01-20T23:53:14.004Z,52.85
2023-01-20T23:55:56.683Z,54.30
2023-01-20T23:58:51.604Z,53.63
